Time;durP1;ratioP1;P1;durP2;ratioP2;P2;SDS_P1;SDS_P2;PMS_P1;PMS_P2;Temp;Humidity;BMP_temperature;BMP_pressure;BME280_temperature;BME280_humidity;BME280_pressure;Samples;Min_cycle;Max_cycle;Signal;HPM_P1;HPM_P2
2022/08/16 00:02:32;;;;;;;;;;;17.70;99.90;;;;;;5084137;28;19935;-57
2022/08/16 00:05:00;;;;;;;;;;;17.70;99.90;;;;;;5084360;28;19924;-56
2022/08/16 00:07:28;;;;;;;;;;;17.60;99.90;;;;;;5085407;28;19931;-55
2022/08/16 00:09:56;;;;;;;;;;;17.60;99.90;;;;;;5065248;28;19925;-55
2022/08/16 00:12:26;;;;;;;;;;;17.50;99.90;;;;;;5065552;28;19932;-57
2022/08/16 00:14:56;;;;;;;;;;;17.50;99.90;;;;;;5084157;28;19931;-58
2022/08/16 00:17:25;;;;;;;;;;;17.40;99.90;;;;;;5085761;28;19935;-55
2022/08/16 00:19:54;;;;;;;;;;;17.40;99.90;;;;;;5085189;28;19935;-54
2022/08/16 00:22:22;;;;;;;;;;;17.40;99.90;;;;;;5085517;28;19935;-56
2022/08/16 00:24:54;;;;;;;;;;;17.30;99.90;;;;;;5085389;28;19932;-55
2022/08/16 00:27:22;;;;;;;;;;;17.30;99.90;;;;;;5074525;28;19924;-56
2022/08/16 00:29:49;;;;;;;;;;;17.20;99.90;;;;;;5084606;28;19924;-54
2022/08/16 00:32:38;;;;;;;;;;;17.20;99.90;;;;;;5085269;28;19931;-55
2022/08/16 00:35:08;;;;;;;;;;;17.20;99.90;;;;;;5085378;28;19924;-54
2022/08/16 00:37:42;;;;;;;;;;;17.10;99.90;;;;;;5085245;28;20176;-54
2022/08/16 00:40:42;;;;;;;;;;;17.10;99.90;;;;;;5085801;28;20816;-55
2022/08/16 00:43:22;;;;;;;;;;;17.00;99.90;;;;;;5076444;28;19924;-54
2022/08/16 00:45:57;;;;;;;;;;;17.00;99.90;;;;;;5085488;28;20412;-60
2022/08/16 00:48:28;;;;;;;;;;;17.00;99.90;;;;;;5084023;28;20295;-55
2022/08/16 00:51:11;;;;;;;;;;;16.90;99.90;;;;;;5083896;28;19932;-58
2022/08/16 00:53:45;;;;;;;;;;;16.90;99.90;;;;;;5070572;28;19924;-55
2022/08/16 00:56:16;;;;;;;;;;;16.90;99.90;;;;;;5087865;28;19928;-58
2022/08/16 00:59:05;;;;;;;;;;;16.80;99.90;;;;;;5080551;28;19925;-58
2022/08/16 01:01:32;;;;;;;;;;;16.90;99.90;;;;;;5088762;28;20369;-58
2022/08/16 01:04:03;;;;;;;;;;;16.90;99.90;;;;;;5087479;28;19932;-58
2022/08/16 01:06:32;;;;;;;;;;;16.90;99.90;;;;;;5087336;28;20418;-57
2022/08/16 01:09:17;;;;;;;;;;;16.90;99.90;;;;;;5087294;28;20290;-59
2022/08/16 01:11:45;;;;;;;;;;;17.00;99.90;;;;;;5087140;28;20426;-55
2022/08/16 01:14:30;;;;;;;;;;;17.10;99.90;;;;;;5083962;28;19928;-59
2022/08/16 01:16:58;;;;;;;;;;;17.10;99.90;;;;;;5088787;28;19924;-57
2022/08/16 01:19:33;;;;;;;;;;;17.20;99.90;;;;;;5091875;28;19931;-58
2022/08/16 01:22:21;;;;;;;;;;;17.20;99.90;;;;;;5091894;28;19928;-60
2022/08/16 01:25:12;;;;;;;;;;;17.30;99.90;;;;;;5089227;28;19923;-59
2022/08/16 01:27:59;;;;;;;;;;;17.30;99.90;;;;;;5084441;28;19931;-58
2022/08/16 01:30:30;;;;;;;;;;;17.40;99.90;;;;;;5087232;28;20220;-57
2022/08/16 01:33:02;;;;;;;;;;;17.40;99.90;;;;;;5089950;28;19925;-57
2022/08/16 01:35:44;;;;;;;;;;;17.40;99.90;;;;;;5073402;28;19935;-59
2022/08/16 01:38:14;;;;;;;;;;;17.50;99.90;;;;;;5062245;28;19928;-60
2022/08/16 01:40:49;;;;;;;;;;;17.50;99.90;;;;;;5093499;28;19932;-58
2022/08/16 01:43:17;;;;;;;;;;;17.60;99.90;;;;;;5089135;28;19925;-55
2022/08/16 01:45:45;;;;;;;;;;;17.60;99.90;;;;;;5071664;28;19932;-59
2022/08/16 01:48:26;;;;;;;;;;;17.60;99.90;;;;;;5074406;28;19925;-60
2022/08/16 01:50:54;;;;;;;;;;;17.70;99.90;;;;;;5072966;28;19932;-56
2022/08/16 01:53:42;;;;;;;;;;;17.70;99.90;;;;;;5073113;28;19928;-60
2022/08/16 01:56:30;;;;;;;;;;;17.70;99.90;;;;;;5074690;28;19948;-59
2022/08/16 01:59:00;;;;;;;;;;;17.80;99.90;;;;;;5072755;28;19925;-57
2022/08/16 02:01:28;;;;;;;;;;;17.80;99.90;;;;;;5073285;28;20264;-56
2022/08/16 02:03:58;;;;;;;;;;;17.80;99.90;;;;;;5056032;28;19924;-54
2022/08/16 02:06:40;;;;;;;;;;;17.80;99.90;;;;;;5073737;28;19925;-60
2022/08/16 02:09:19;;;;;;;;;;;17.80;99.90;;;;;;5072971;28;20268;-54
2022/08/16 02:11:51;;;;;;;;;;;17.80;99.90;;;;;;5073021;28;20394;-58
2022/08/16 02:14:21;;;;;;;;;;;17.80;99.90;;;;;;5072600;28;19924;-58
2022/08/16 02:16:56;;;;;;;;;;;17.90;99.90;;;;;;5072732;28;19925;-57
2022/08/16 02:19:26;;;;;;;;;;;17.80;99.90;;;;;;5072874;28;19924;-59
2022/08/16 02:22:15;;;;;;;;;;;17.90;99.90;;;;;;5073788;28;19943;-59
2022/08/16 02:25:07;;;;;;;;;;;17.90;99.90;;;;;;5073028;28;20380;-58
2022/08/16 02:27:37;;;;;;;;;;;17.90;99.90;;;;;;5073554;28;19925;-59
2022/08/16 02:30:13;;;;;;;;;;;17.90;99.90;;;;;;5072567;28;19932;-57
2022/08/16 02:33:01;;;;;;;;;;;17.90;99.90;;;;;;5073510;28;20299;-57
2022/08/16 02:35:30;;;;;;;;;;;17.90;99.90;;;;;;5072384;28;19926;-54
2022/08/16 02:37:57;;;;;;;;;;;17.90;99.90;;;;;;5073285;28;19924;-58
2022/08/16 02:40:35;;;;;;;;;;;17.90;99.90;;;;;;5057030;28;19924;-55
2022/08/16 02:43:04;;;;;;;;;;;18.00;99.90;;;;;;5072218;28;20304;-54
2022/08/16 02:45:32;;;;;;;;;;;18.00;99.90;;;;;;5072209;28;19924;-54
2022/08/16 02:47:59;;;;;;;;;;;17.90;99.90;;;;;;5072035;28;20314;-54
2022/08/16 02:50:48;;;;;;;;;;;17.90;99.90;;;;;;5071949;28;19947;-56
2022/08/16 02:53:29;;;;;;;;;;;17.90;99.90;;;;;;5071926;28;19924;-55
2022/08/16 02:55:57;;;;;;;;;;;18.20;99.90;;;;;;5071818;28;19925;-55
2022/08/16 02:58:27;;;;;;;;;;;17.90;99.90;;;;;;5071817;28;19924;-55
2022/08/16 03:00:56;;;;;;;;;;;17.90;99.90;;;;;;5071925;28;19931;-54
2022/08/16 03:03:25;;;;;;;;;;;17.90;99.90;;;;;;5071899;28;19924;-55
2022/08/16 03:06:16;;;;;;;;;;;17.80;99.90;;;;;;5071957;28;19924;-54
2022/08/16 03:09:09;;;;;;;;;;;17.80;99.90;;;;;;5072251;28;19924;-54
2022/08/16 03:11:46;;;;;;;;;;;17.80;99.90;;;;;;5071400;28;19931;-58
2022/08/16 03:14:13;;;;;;;;;;;17.70;99.90;;;;;;5071588;28;19924;-55
2022/08/16 03:16:52;;;;;;;;;;;17.70;99.90;;;;;;5071273;28;19947;-61
2022/08/16 03:19:32;;;;;;;;;;;17.60;99.90;;;;;;5071600;28;20394;-60
2022/08/16 03:22:17;;;;;;;;;;;17.60;99.90;;;;;;5071351;28;20402;-57
2022/08/16 03:25:00;;;;;;;;;;;17.60;99.90;;;;;;5071315;28;20394;-60
2022/08/16 03:27:31;;;;;;;;;;;17.60;99.90;;;;;;5071457;28;20291;-56
2022/08/16 03:30:05;;;;;;;;;;;17.60;99.90;;;;;;5071364;28;20375;-60
2022/08/16 03:32:48;;;;;;;;;;;17.50;99.90;;;;;;5071141;28;19924;-60
2022/08/16 03:35:21;;;;;;;;;;;17.50;99.90;;;;;;5071308;28;20380;-58
2022/08/16 03:37:53;;;;;;;;;;;17.50;99.90;;;;;;5071319;28;20334;-59
2022/08/16 03:40:34;;;;;;;;;;;17.50;99.90;;;;;;5071437;28;19924;-59
2022/08/16 03:43:04;;;;;;;;;;;17.50;99.90;;;;;;5071153;28;19925;-60
2022/08/16 03:45:50;;;;;;;;;;;17.50;99.90;;;;;;5070822;28;20376;-60
2022/08/16 03:48:22;;;;;;;;;;;17.50;99.90;;;;;;5071055;28;20382;-58
2022/08/16 03:51:10;;;;;;;;;;;17.50;99.90;;;;;;5070962;28;20376;-58
2022/08/16 03:53:50;;;;;;;;;;;17.50;99.90;;;;;;5070957;28;19924;-60
2022/08/16 03:56:28;;;;;;;;;;;17.50;99.90;;;;;;5072051;28;19925;-59
2022/08/16 03:58:58;;;;;;;;;;;17.50;99.90;;;;;;5070966;28;19925;-61
2022/08/16 04:01:31;;;;;;;;;;;17.60;99.90;;;;;;5070999;28;19924;-61
2022/08/16 04:04:00;;;;;;;;;;;17.60;99.90;;;;;;5070835;28;19924;-59
2022/08/16 04:06:29;;;;;;;;;;;17.60;99.90;;;;;;5070936;28;19932;-61
2022/08/16 04:08:56;;;;;;;;;;;17.60;99.90;;;;;;5070851;28;19940;-59
2022/08/16 04:11:24;;;;;;;;;;;17.60;99.90;;;;;;5070616;28;19959;-58
2022/08/16 04:13:53;;;;;;;;;;;17.60;99.90;;;;;;5070808;28;19924;-60
2022/08/16 04:16:39;;;;;;;;;;;17.60;99.90;;;;;;5053836;28;19924;-60
2022/08/16 04:19:29;;;;;;;;;;;17.70;99.90;;;;;;5071926;28;19931;-56
2022/08/16 04:21:59;;;;;;;;;;;17.60;99.90;;;;;;5070539;28;19951;-57
2022/08/16 04:24:31;;;;;;;;;;;17.70;99.90;;;;;;5070895;28;20427;-59
2022/08/16 04:26:59;;;;;;;;;;;17.70;99.90;;;;;;5071098;28;19931;-59
2022/08/16 04:29:27;;;;;;;;;;;17.70;99.90;;;;;;5074837;28;19925;-60
2022/08/16 04:32:15;;;;;;;;;;;17.80;99.90;;;;;;5074570;28;20273;-59
2022/08/16 04:34:47;;;;;;;;;;;17.70;99.90;;;;;;5074537;28;19924;-57
2022/08/16 04:37:15;;;;;;;;;;;17.70;99.90;;;;;;5058232;28;20019;-55
2022/08/16 04:39:47;;;;;;;;;;;17.70;99.90;;;;;;5074620;28;19947;-55
2022/08/16 04:42:24;;;;;;;;;;;17.70;99.90;;;;;;5074416;28;20326;-54
2022/08/16 04:45:03;;;;;;;;;;;17.70;99.90;;;;;;5074452;28;19931;-55
2022/08/16 04:47:33;;;;;;;;;;;17.70;99.90;;;;;;5075086;28;20397;-58
2022/08/16 04:50:15;;;;;;;;;;;17.70;99.90;;;;;;5070858;28;19924;-54
2022/08/16 04:53:19;;;;;;;;;;;17.70;99.90;;;;;;5075269;28;20295;-53
2022/08/16 04:55:50;;;;;;;;;;;17.70;99.90;;;;;;5070773;28;19925;-55
2022/08/16 04:58:23;;;;;;;;;;;17.70;99.90;;;;;;5081863;28;20287;-55
2022/08/16 05:01:11;;;;;;;;;;;17.70;99.90;;;;;;5091186;28;19924;-57
2022/08/16 05:03:38;;;;;;;;;;;17.70;99.90;;;;;;5080511;28;20299;-55
2022/08/16 05:06:28;;;;;;;;;;;17.80;99.90;;;;;;5067188;28;19948;-57
2022/08/16 05:09:47;;;;;;;;;;;17.80;99.90;;;;;;5067668;28;19982;-58
2022/08/16 05:12:17;;;;;;;;;;;17.70;99.90;;;;;;5071073;28;19924;-56
2022/08/16 05:14:49;;;;;;;;;;;17.70;99.90;;;;;;5090163;28;19939;-57
2022/08/16 05:17:33;;;;;;;;;;;17.70;99.90;;;;;;5088825;28;19931;-55
2022/08/16 05:20:08;;;;;;;;;;;17.70;99.90;;;;;;5070507;28;19925;-55
2022/08/16 05:22:57;;;;;;;;;;;17.70;99.90;;;;;;5086611;28;19935;-56
2022/08/16 05:25:26;;;;;;;;;;;17.80;99.90;;;;;;5087279;28;19924;-54
2022/08/16 05:28:09;;;;;;;;;;;17.70;99.90;;;;;;5073288;28;19924;-55
2022/08/16 05:30:43;;;;;;;;;;;17.70;99.90;;;;;;5089764;28;19932;-55
2022/08/16 05:33:31;;;;;;;;;;;17.70;99.90;;;;;;5079755;28;20300;-54
2022/08/16 05:36:00;;;;;;;;;;;17.70;99.90;;;;;;5068978;28;19939;-55
2022/08/16 05:38:32;;;;;;;;;;;17.70;99.90;;;;;;5089792;28;19924;-60
2022/08/16 05:41:10;;;;;;;;;;;17.60;99.90;;;;;;5090608;28;19928;-61
2022/08/16 05:43:44;;;;;;;;;;;17.60;99.90;;;;;;5089950;28;19928;-61
2022/08/16 05:46:20;;;;;;;;;;;17.60;99.90;;;;;;5090080;28;19924;-61
2022/08/16 05:49:18;;;;;;;;;;;17.60;99.90;;;;;;5075280;28;20489;-54
2022/08/16 05:51:54;;;;;;;;;;;17.50;99.90;;;;;;5053837;28;19940;-57
2022/08/16 05:54:23;;;;;;;;;;;17.50;99.90;;;;;;5091212;28;19924;-57
2022/08/16 05:56:55;;;;;;;;;;;17.40;99.90;;;;;;5089800;28;20437;-57
2022/08/16 05:59:23;;;;;;;;;;;17.40;99.90;;;;;;5089558;28;19924;-59
2022/08/16 06:01:54;;;;;;;;;;;17.40;99.90;;;;;;5089640;28;19935;-55
2022/08/16 06:04:28;;;;;;;;;;;17.40;99.90;;;;;;5075199;28;19951;-59
2022/08/16 06:07:05;;;;;;;;;;;17.30;99.90;;;;;;5070495;28;19931;-58
2022/08/16 06:09:39;;;;;;;;;;;17.30;99.90;;;;;;5089573;28;19924;-59
2022/08/16 06:12:13;;;;;;;;;;;17.30;99.90;;;;;;5072597;28;19931;-61
2022/08/16 06:14:57;;;;;;;;;;;17.30;99.90;;;;;;5074920;28;20303;-60
2022/08/16 06:17:27;;;;;;;;;;;17.30;99.90;;;;;;5089386;28;19928;-56
2022/08/16 06:20:16;;;;;;;;;;;17.30;99.90;;;;;;5066690;28;19932;-60
2022/08/16 06:22:54;;;;;;;;;;;17.30;99.90;;;;;;5074077;28;20402;-56
2022/08/16 06:25:34;;;;;;;;;;;17.30;99.90;;;;;;5089087;28;19935;-60
2022/08/16 06:28:07;;;;;;;;;;;17.30;99.90;;;;;;5073310;28;20329;-60
2022/08/16 06:30:38;;;;;;;;;;;17.40;99.90;;;;;;5089444;28;19931;-58
2022/08/16 06:33:12;;;;;;;;;;;17.50;99.90;;;;;;5069383;28;19927;-59
2022/08/16 06:35:51;;;;;;;;;;;17.50;99.90;;;;;;5069279;28;19924;-59
2022/08/16 06:38:27;;;;;;;;;;;17.60;99.90;;;;;;5089188;28;19935;-57
2022/08/16 06:41:07;;;;;;;;;;;17.50;99.90;;;;;;5088985;28;19924;-56
2022/08/16 06:43:42;;;;;;;;;;;17.60;99.90;;;;;;5088755;28;19924;-58
2022/08/16 06:46:26;;;;;;;;;;;17.60;99.90;;;;;;5089161;28;19943;-58
2022/08/16 06:49:01;;;;;;;;;;;17.60;99.90;;;;;;5085215;28;19931;-56
2022/08/16 06:51:35;;;;;;;;;;;17.70;99.90;;;;;;5067993;28;20287;-55
2022/08/16 06:54:19;;;;;;;;;;;17.70;99.90;;;;;;5088191;28;19924;-58
2022/08/16 06:56:47;;;;;;;;;;;17.80;99.90;;;;;;5071891;28;19935;-59
2022/08/16 06:59:21;;;;;;;;;;;17.80;99.90;;;;;;5088719;28;19994;-56
2022/08/16 07:01:56;;;;;;;;;;;17.80;99.90;;;;;;5086807;28;19924;-55
2022/08/16 07:04:27;;;;;;;;;;;17.90;99.90;;;;;;5081443;28;19924;-59
2022/08/16 07:07:07;;;;;;;;;;;18.00;99.90;;;;;;5049498;28;19931;-57
2022/08/16 07:09:38;;;;;;;;;;;18.00;99.90;;;;;;5088381;28;20496;-59
2022/08/16 07:12:07;;;;;;;;;;;18.10;99.90;;;;;;5071396;28;20363;-59
2022/08/16 07:14:39;;;;;;;;;;;18.10;99.90;;;;;;5088477;28;19924;-60
2022/08/16 07:17:08;;;;;;;;;;;18.30;99.90;;;;;;5088382;28;19931;-62
2022/08/16 07:19:43;;;;;;;;;;;18.30;99.90;;;;;;5075850;28;19932;-60
2022/08/16 07:22:41;;;;;;;;;;;18.40;99.90;;;;;;5074797;28;19931;-60
2022/08/16 07:25:27;;;;;;;;;;;18.50;99.90;;;;;;5087762;28;20394;-57
2022/08/16 07:27:55;;;;;;;;;;;18.60;99.90;;;;;;5088130;28;19924;-61
2022/08/16 07:30:29;;;;;;;;;;;18.60;99.90;;;;;;5088144;28;19975;-56
2022/08/16 07:33:25;;;;;;;;;;;18.60;99.90;;;;;;5070601;28;19931;-56
2022/08/16 07:36:14;;;;;;;;;;;18.70;99.90;;;;;;5088168;28;19924;-55
2022/08/16 07:38:50;;;;;;;;;;;18.70;99.90;;;;;;5087774;28;19924;-56
2022/08/16 07:41:19;;;;;;;;;;;18.80;99.90;;;;;;5087946;28;19931;-59
2022/08/16 07:43:52;;;;;;;;;;;18.80;99.90;;;;;;5087764;28;19924;-55
2022/08/16 07:46:20;;;;;;;;;;;18.90;99.90;;;;;;5088135;28;19935;-55
2022/08/16 07:49:32;;;;;;;;;;;18.90;99.90;;;;;;5079450;28;19947;-55
2022/08/16 07:52:03;;;;;;;;;;;19.00;99.90;;;;;;5069003;28;20296;-55
2022/08/16 07:54:47;;;;;;;;;;;19.10;99.90;;;;;;5087916;28;19931;-55
2022/08/16 07:57:15;;;;;;;;;;;19.20;99.90;;;;;;5087514;28;19928;-55
2022/08/16 07:59:47;;;;;;;;;;;19.20;99.90;;;;;;5088300;28;19928;-55
2022/08/16 08:02:17;;;;;;;;;;;19.30;99.90;;;;;;5071431;28;19931;-54
2022/08/16 08:04:54;;;;;;;;;;;19.40;99.90;;;;;;5077501;28;19925;-58
2022/08/16 08:07:22;;;;;;;;;;;19.40;99.90;;;;;;5069004;28;19932;-58
2022/08/16 08:09:55;;;;;;;;;;;19.50;99.90;;;;;;5087402;28;19928;-60
2022/08/16 08:12:23;;;;;;;;;;;19.50;99.90;;;;;;5087232;28;19931;-60
2022/08/16 08:15:05;;;;;;;;;;;19.50;99.90;;;;;;5087624;28;19924;-59
2022/08/16 08:17:38;;;;;;;;;;;19.50;99.90;;;;;;5087443;28;19928;-60
2022/08/16 08:20:18;;;;;;;;;;;19.50;99.90;;;;;;5074894;28;19925;-59
2022/08/16 08:22:57;;;;;;;;;;;19.50;99.90;;;;;;5075828;28;19932;-60
2022/08/16 08:25:33;;;;;;;;;;;19.40;99.90;;;;;;5087517;28;19991;-60
2022/08/16 08:28:21;;;;;;;;;;;19.50;99.90;;;;;;5087492;28;20401;-60
2022/08/16 08:30:53;;;;;;;;;;;19.50;99.90;;;;;;5087311;28;19936;-60
2022/08/16 08:33:30;;;;;;;;;;;19.50;99.90;;;;;;5087068;28;19931;-58
2022/08/16 08:36:03;;;;;;;;;;;19.60;99.90;;;;;;5083713;28;20383;-59
2022/08/16 08:38:32;;;;;;;;;;;19.60;99.90;;;;;;5079697;28;19924;-61
2022/08/16 08:41:16;;;;;;;;;;;19.60;99.90;;;;;;5070169;28;19936;-60
2022/08/16 08:43:51;;;;;;;;;;;19.70;99.90;;;;;;5086967;28;19931;-61
2022/08/16 08:46:20;;;;;;;;;;;19.70;99.90;;;;;;5087331;28;19931;-60
2022/08/16 08:48:52;;;;;;;;;;;19.80;99.90;;;;;;5087099;28;19925;-58
2022/08/16 08:51:37;;;;;;;;;;;19.90;99.90;;;;;;5066954;28;20552;-59
2022/08/16 08:54:13;;;;;;;;;;;19.90;99.90;;;;;;5087153;28;19932;-61
2022/08/16 08:56:50;;;;;;;;;;;20.00;99.90;;;;;;5087214;28;19931;-60
2022/08/16 08:59:33;;;;;;;;;;;20.10;99.90;;;;;;5087018;28;19947;-60
2022/08/16 09:02:09;;;;;;;;;;;20.10;99.90;;;;;;5086956;28;19924;-60
2022/08/16 09:04:43;;;;;;;;;;;20.30;99.90;;;;;;5083337;28;19931;-59
2022/08/16 09:07:18;;;;;;;;;;;20.40;99.90;;;;;;5067841;28;19946;-59
2022/08/16 09:09:47;;;;;;;;;;;20.50;99.90;;;;;;5086889;28;19931;-60
2022/08/16 09:12:17;;;;;;;;;;;20.60;99.90;;;;;;5086826;28;19932;-61
2022/08/16 09:15:13;;;;;;;;;;;20.70;99.90;;;;;;5090554;28;19924;-60
2022/08/16 09:17:44;;;;;;;;;;;20.90;99.90;;;;;;5090744;28;19928;-60
2022/08/16 09:20:19;;;;;;;;;;;21.00;99.90;;;;;;5082136;28;19950;-58
2022/08/16 09:22:50;;;;;;;;;;;21.10;99.90;;;;;;5077727;28;19924;-58
2022/08/16 09:25:25;;;;;;;;;;;21.20;99.90;;;;;;5090587;28;19924;-61
2022/08/16 09:28:03;;;;;;;;;;;21.10;99.90;;;;;;5073586;28;19931;-60
2022/08/16 09:30:57;;;;;;;;;;;21.10;99.90;;;;;;5087389;28;19924;-56
2022/08/16 09:33:24;;;;;;;;;;;21.10;99.90;;;;;;5090158;28;19931;-60
2022/08/16 09:35:59;;;;;;;;;;;21.10;99.90;;;;;;5077936;28;19928;-59
2022/08/16 09:38:27;;;;;;;;;;;21.20;99.90;;;;;;5082066;28;20222;-61
2022/08/16 09:40:59;;;;;;;;;;;21.30;99.90;;;;;;5090295;28;19935;-59
2022/08/16 09:43:27;;;;;;;;;;;21.40;99.90;;;;;;5091512;28;19928;-59
2022/08/16 09:46:14;;;;;;;;;;;21.50;99.90;;;;;;5091537;28;19924;-59
2022/08/16 09:49:02;;;;;;;;;;;21.70;99.90;;;;;;5090972;28;19924;-59
2022/08/16 09:51:30;;;;;;;;;;;21.80;99.90;;;;;;5074586;28;19932;-59
2022/08/16 09:54:05;;;;;;;;;;;21.80;99.90;;;;;;5088536;28;19924;-57
2022/08/16 09:56:37;;;;;;;;;;;21.80;99.90;;;;;;5091073;28;20375;-62
2022/08/16 09:59:05;;;;;;;;;;;21.90;99.90;;;;;;5091147;28;19928;-58
2022/08/16 10:01:35;;;;;;;;;;;21.80;99.90;;;;;;5090028;28;19924;-58
2022/08/16 10:04:05;;;;;;;;;;;21.90;99.90;;;;;;5089671;28;19924;-54
2022/08/16 10:06:53;;;;;;;;;;;21.90;99.90;;;;;;5072255;28;19957;-57
2022/08/16 10:09:24;;;;;;;;;;;21.80;99.90;;;;;;5088964;28;19924;-55
2022/08/16 10:14:59;;;;;;;;;;;21.60;99.90;;;;;;5090788;28;19924;-54
2022/08/16 10:17:28;;;;;;;;;;;21.60;99.90;;;;;;5090763;28;19924;-54
2022/08/16 10:19:56;;;;;;;;;;;21.50;99.90;;;;;;5089386;28;20374;-54
2022/08/16 10:22:24;;;;;;;;;;;21.50;99.90;;;;;;5073898;28;19932;-55
2022/08/16 10:24:51;;;;;;;;;;;21.60;99.90;;;;;;5089287;28;20371;-55
2022/08/16 10:27:26;;;;;;;;;;;21.60;99.90;;;;;;5090492;28;19928;-55
2022/08/16 10:30:13;;;;;;;;;;;21.60;99.90;;;;;;5090522;28;20294;-60
2022/08/16 10:32:54;;;;;;;;;;;21.60;99.90;;;;;;5090069;28;19931;-59
2022/08/16 10:35:22;;;;;;;;;;;21.60;99.90;;;;;;5086849;28;20276;-60
2022/08/16 10:37:58;;;;;;;;;;;21.60;99.60;;;;;;5076540;28;19924;-54
2022/08/16 10:40:26;;;;;;;;;;;21.60;99.80;;;;;;5088805;28;20306;-55
2022/08/16 10:42:58;;;;;;;;;;;21.50;99.80;;;;;;5090016;28;19951;-60
2022/08/16 10:45:27;;;;;;;;;;;21.50;99.70;;;;;;5090376;28;20455;-56
2022/08/16 10:48:08;;;;;;;;;;;21.50;99.90;;;;;;5090096;28;19985;-54
2022/08/16 10:50:58;;;;;;;;;;;21.50;99.90;;;;;;5085362;28;19924;-55
2022/08/16 10:53:27;;;;;;;;;;;21.50;99.90;;;;;;5082126;28;20302;-55
2022/08/16 10:56:00;;;;;;;;;;;21.50;99.90;;;;;;5090519;28;19924;-61
2022/08/16 10:58:29;;;;;;;;;;;21.50;99.90;;;;;;5089765;28;19924;-59
2022/08/16 11:01:05;;;;;;;;;;;21.50;99.90;;;;;;5089998;28;19928;-60
2022/08/16 11:03:53;;;;;;;;;;;21.60;99.90;;;;;;5089620;28;19924;-59
2022/08/16 11:06:23;;;;;;;;;;;21.70;99.90;;;;;;5061677;28;20101;-61
2022/08/16 11:08:55;;;;;;;;;;;21.70;99.90;;;;;;5083497;28;19924;-61
2022/08/16 11:11:42;;;;;;;;;;;21.90;99.90;;;;;;5089584;28;19948;-61
2022/08/16 11:14:29;;;;;;;;;;;22.10;99.90;;;;;;5088024;28;20378;-61
2022/08/16 11:17:02;;;;;;;;;;;22.20;99.70;;;;;;5089770;28;20350;-55
2022/08/16 11:19:40;;;;;;;;;;;22.40;99.60;;;;;;5088249;28;19924;-58
2022/08/16 11:22:27;;;;;;;;;;;22.50;99.20;;;;;;5074741;28;19947;-61
2022/08/16 11:25:18;;;;;;;;;;;22.60;98.90;;;;;;5088933;28;20346;-53
2022/08/16 11:28:06;;;;;;;;;;;22.80;98.90;;;;;;5089142;28;19931;-54
2022/08/16 11:30:34;;;;;;;;;;;22.90;98.30;;;;;;5071420;28;19924;-60
2022/08/16 11:33:08;;;;;;;;;;;23.00;97.80;;;;;;5089251;28;19928;-61
2022/08/16 11:35:37;;;;;;;;;;;23.00;97.80;;;;;;5087381;28;19927;-60
2022/08/16 11:38:25;;;;;;;;;;;23.10;97.60;;;;;;5079044;28;19924;-61
2022/08/16 11:41:13;;;;;;;;;;;23.30;97.60;;;;;;5089514;28;20303;-59
2022/08/16 11:43:40;;;;;;;;;;;23.50;97.20;;;;;;5089264;28;19924;-60
2022/08/16 11:46:10;;;;;;;;;;;23.60;96.80;;;;;;5089359;28;19932;-58
2022/08/16 11:48:57;;;;;;;;;;;23.50;96.60;;;;;;5088878;28;19924;-59
2022/08/16 11:51:25;;;;;;;;;;;23.50;96.80;;;;;;5081409;28;20376;-59
2022/08/16 11:53:53;;;;;;;;;;;23.50;96.80;;;;;;5084171;28;19935;-59
2022/08/16 11:56:21;;;;;;;;;;;23.60;96.90;;;;;;5088948;28;20295;-59
2022/08/16 11:59:09;;;;;;;;;;;23.80;97.00;;;;;;5088749;28;20403;-59
2022/08/16 12:01:39;;;;;;;;;;;24.20;97.40;;;;;;5088923;28;19946;-61
2022/08/16 12:04:26;;;;;;;;;;;24.60;96.50;;;;;;5087553;28;20295;-57
2022/08/16 12:06:54;;;;;;;;;;;25.00;95.20;;;;;;5078706;28;19925;-56
2022/08/16 12:09:22;;;;;;;;;;;25.20;94.40;;;;;;5085071;28;19935;-55
2022/08/16 12:11:51;;;;;;;;;;;25.20;94.10;;;;;;5088499;28;20401;-57
2022/08/16 12:14:20;;;;;;;;;;;25.10;93.70;;;;;;5088636;28;19947;-58
2022/08/16 12:16:51;;;;;;;;;;;25.10;93.90;;;;;;5087740;28;19924;-60
2022/08/16 12:19:22;;;;;;;;;;;25.00;94.60;;;;;;5088617;28;19924;-57
2022/08/16 12:22:06;;;;;;;;;;;25.30;95.00;;;;;;5078413;28;19924;-58
2022/08/16 12:24:47;;;;;;;;;;;25.50;93.90;;;;;;5088851;28;19925;-58
2022/08/16 12:27:22;;;;;;;;;;;25.80;93.10;;;;;;5088726;28;19924;-59
2022/08/16 12:29:51;;;;;;;;;;;26.10;92.50;;;;;;5088625;28;19998;-59
2022/08/16 12:32:19;;;;;;;;;;;26.10;92.00;;;;;;5085598;28;19925;-62
2022/08/16 12:35:08;;;;;;;;;;;26.00;91.60;;;;;;5085423;28;19924;-59
2022/08/16 12:37:35;;;;;;;;;;;25.90;92.20;;;;;;5086051;28;19932;-57
2022/08/16 12:40:07;;;;;;;;;;;25.90;92.20;;;;;;5088513;28;19935;-58
2022/08/16 12:42:52;;;;;;;;;;;25.80;91.90;;;;;;5088596;28;19932;-58
2022/08/16 12:45:21;;;;;;;;;;;25.60;91.40;;;;;;5088597;28;19928;-57
2022/08/16 12:50:55;;;;;;;;;;;25.10;91.80;;;;;;5092326;28;19947;-55
2022/08/16 12:53:23;;;;;;;;;;;24.80;92.20;;;;;;5084064;28;19924;-60
2022/08/16 12:55:50;;;;;;;;;;;24.70;92.40;;;;;;5092339;28;19924;-61
2022/08/16 12:58:19;;;;;;;;;;;24.60;92.50;;;;;;5092257;28;19924;-61
2022/08/16 13:01:07;;;;;;;;;;;24.50;92.60;;;;;;5092606;28;19984;-60
2022/08/16 13:03:39;;;;;;;;;;;24.40;92.80;;;;;;5090669;28;19931;-60
2022/08/16 13:06:07;;;;;;;;;;;24.40;93.00;;;;;;5091890;28;19924;-62
2022/08/16 13:08:35;;;;;;;;;;;24.40;92.90;;;;;;5082942;28;19924;-59
2022/08/16 13:11:03;;;;;;;;;;;24.30;92.70;;;;;;5091808;28;20409;-59
2022/08/16 13:13:34;;;;;;;;;;;24.30;92.80;;;;;;5091513;28;19931;-61
2022/08/16 13:16:03;;;;;;;;;;;24.30;92.90;;;;;;5091989;28;19931;-60
2022/08/16 13:18:47;;;;;;;;;;;24.20;93.10;;;;;;5091897;28;19931;-61
2022/08/16 13:21:19;;;;;;;;;;;24.20;93.30;;;;;;5091743;28;20268;-61
2022/08/16 13:23:50;;;;;;;;;;;24.10;93.30;;;;;;5086340;28;19924;-60
2022/08/16 13:26:23;;;;;;;;;;;24.10;93.50;;;;;;5090190;28;19931;-56
2022/08/16 13:28:53;;;;;;;;;;;24.10;93.70;;;;;;5091662;28;19925;-61
2022/08/16 13:31:20;;;;;;;;;;;24.10;93.60;;;;;;5091725;28;19928;-61
2022/08/16 13:33:50;;;;;;;;;;;24.10;93.70;;;;;;5090130;28;19932;-61
2022/08/16 13:36:20;;;;;;;;;;;24.10;93.70;;;;;;5090382;28;19924;-62
2022/08/16 13:39:08;;;;;;;;;;;24.20;93.60;;;;;;5086692;28;19928;-61
2022/08/16 13:41:36;;;;;;;;;;;24.20;93.40;;;;;;5091828;28;19931;-61
2022/08/16 13:44:03;;;;;;;;;;;24.20;93.20;;;;;;5090256;28;19924;-59
2022/08/16 13:46:36;;;;;;;;;;;24.20;93.40;;;;;;5091543;28;19924;-61
2022/08/16 13:49:04;;;;;;;;;;;24.30;93.30;;;;;;5091225;28;19924;-61
2022/08/16 13:51:32;;;;;;;;;;;24.30;93.30;;;;;;5090762;28;20275;-56
2022/08/16 13:54:04;;;;;;;;;;;24.40;93.50;;;;;;5090926;28;19924;-60
2022/08/16 13:56:33;;;;;;;;;;;24.60;93.90;;;;;;5091265;28;19935;-60
2022/08/16 13:59:07;;;;;;;;;;;25.00;93.70;;;;;;5090528;28;19931;-61
2022/08/16 14:01:49;;;;;;;;;;;25.20;92.20;;;;;;5090092;28;19928;-61
2022/08/16 14:04:24;;;;;;;;;;;25.40;92.30;;;;;;5090784;28;19931;-56
2022/08/16 14:06:53;;;;;;;;;;;25.50;92.10;;;;;;5086574;28;19924;-59
2022/08/16 14:09:23;;;;;;;;;;;25.60;91.60;;;;;;5084710;28;20375;-58
2022/08/16 14:11:50;;;;;;;;;;;25.60;91.60;;;;;;5089213;28;19931;-59
2022/08/16 14:14:20;;;;;;;;;;;25.50;91.30;;;;;;5089302;28;19924;-58
2022/08/16 14:16:56;;;;;;;;;;;25.30;91.30;;;;;;5090999;28;19924;-60
2022/08/16 14:19:24;;;;;;;;;;;25.10;91.70;;;;;;5089652;28;19924;-60
2022/08/16 14:21:56;;;;;;;;;;;25.00;92.00;;;;;;5088656;28;19998;-60
2022/08/16 14:24:44;;;;;;;;;;;24.90;92.00;;;;;;5086200;28;19936;-61
2022/08/16 14:27:15;;;;;;;;;;;24.90;92.20;;;;;;5070726;28;19935;-61
2022/08/16 14:29:44;;;;;;;;;;;24.80;92.20;;;;;;5090677;28;19927;-61
2022/08/16 14:32:19;;;;;;;;;;;24.70;92.50;;;;;;5090604;28;19924;-59
2022/08/16 14:35:05;;;;;;;;;;;24.70;92.40;;;;;;5089486;28;19924;-60
2022/08/16 14:37:34;;;;;;;;;;;24.70;92.50;;;;;;5087527;28;19955;-61
2022/08/16 14:40:06;;;;;;;;;;;24.60;92.50;;;;;;5090481;28;19935;-57
2022/08/16 14:42:34;;;;;;;;;;;24.70;92.70;;;;;;5090230;28;19924;-60
2022/08/16 14:45:04;;;;;;;;;;;24.70;92.70;;;;;;5090162;28;19928;-56
2022/08/16 14:47:31;;;;;;;;;;;24.80;92.90;;;;;;5088756;28;19928;-55
2022/08/16 14:50:02;;;;;;;;;;;24.80;92.40;;;;;;5090177;28;20295;-55
2022/08/16 14:52:32;;;;;;;;;;;24.80;92.40;;;;;;5089511;28;19924;-54
2022/08/16 14:55:19;;;;;;;;;;;24.70;92.60;;;;;;5089962;28;19924;-55
2022/08/16 14:57:47;;;;;;;;;;;24.70;92.30;;;;;;5089783;28;20408;-61
2022/08/16 15:00:19;;;;;;;;;;;24.50;92.20;;;;;;5088770;28;19931;-60
2022/08/16 15:02:55;;;;;;;;;;;24.40;92.60;;;;;;5089798;28;19924;-54
2022/08/16 15:05:24;;;;;;;;;;;24.30;92.60;;;;;;5089934;28;19954;-54
2022/08/16 15:07:55;;;;;;;;;;;24.20;92.70;;;;;;5087404;28;19924;-55
2022/08/16 15:10:23;;;;;;;;;;;24.20;92.80;;;;;;5089471;28;19924;-54